Time,TemperatureF,DewpointF,PressureIn,WindDirection,WindDirectionDegrees,WindSpeedMPH,WindSpeedGustMPH,Humidity,HourlyPrecipIn,Conditions,Clouds,dailyrainin,SoftwareType,DateUTC
2013-12-08 00:12:00,21.9,15.0,30.48,NNE,26,1.0,6.0,75,0.00,,,0.00,weatherlink.com 1.10,2013-12-08 05:12:00,
2013-12-08 00:27:00,21.7,15.0,30.48,NNE,16,1.0,6.0,76,0.00,,,0.00,weatherlink.com 1.10,2013-12-08 05:27:00,
2013-12-08 00:42:00,21.7,15.0,30.47,NW,313,2.0,7.0,75,0.00,,,0.00,weatherlink.com 1.10,2013-12-08 05:42:00,
2013-12-08 00:57:00,21.7,15.0,30.48,NNE,29,2.0,8.0,76,0.00,,,0.00,weatherlink.com 1.10,2013-12-08 05:57:00,
2013-12-08 01:12:00,21.5,15.0,30.47,NE,42,4.0,9.0,76,0.00,,,0.00,weatherlink.com 1.10,2013-12-08 06:12:00,
2013-12-08 01:27:00,21.2,15.0,30.47,North,11,0.0,8.0,76,0.00,,,0.00,weatherlink.com 1.10,2013-12-08 06:27:00,
2013-12-08 01:42:00,20.8,15.0,30.48,NNE,19,3.0,6.0,77,0.00,,,0.00,weatherlink.com 1.10,2013-12-08 06:42:00,
2013-12-08 01:57:00,20.4,15.0,30.49,NE,37,1.0,6.0,78,0.00,,,0.00,weatherlink.com 1.10,2013-12-08 06:57:00,
2013-12-08 02:12:00,20.2,15.0,30.49,NE,51,2.0,5.0,79,0.00,,,0.00,weatherlink.com 1.10,2013-12-08 07:12:00,
2013-12-08 02:27:00,20.3,15.0,30.50,North,11,1.0,4.0,79,0.00,,,0.00,weatherlink.com 1.10,2013-12-08 07:27:00,
2013-12-08 02:42:00,20.3,15.0,30.50,North,350,6.0,6.0,79,0.00,,,0.00,weatherlink.com 1.10,2013-12-08 07:42:00,
2013-12-08 02:57:00,20.6,15.0,30.50,NNE,19,1.0,5.0,79,0.00,,,0.00,weatherlink.com 1.10,2013-12-08 07:57:00,
2013-12-08 03:13:00,20.6,15.0,30.50,North,355,2.0,6.0,79,0.00,,,0.00,weatherlink.com 1.10,2013-12-08 08:13:00,
2013-12-08 03:27:00,20.4,15.0,30.49,North,5,2.0,7.0,79,0.00,,,0.00,weatherlink.com 1.10,2013-12-08 08:27:00,
2013-12-08 03:42:00,20.4,15.0,30.49,NNW,342,3.0,7.0,80,0.00,,,0.00,weatherlink.com 1.10,2013-12-08 08:42:00,
2013-12-08 03:57:00,20.2,15.0,30.49,NNE,16,3.0,9.0,81,0.00,,,0.00,weatherlink.com 1.10,2013-12-08 08:57:00,
2013-12-08 04:12:00,19.9,15.0,30.49,North,360,1.0,7.0,81,0.00,,,0.00,weatherlink.com 1.10,2013-12-08 09:12:00,
2013-12-08 04:27:00,19.6,15.0,30.50,North,5,1.0,5.0,81,0.00,,,0.00,weatherlink.com 1.10,2013-12-08 09:27:00,
2013-12-08 04:42:00,19.3,15.0,30.50,NNW,345,2.0,6.0,82,0.00,,,0.00,weatherlink.com 1.10,2013-12-08 09:42:00,
2013-12-08 04:57:00,19.1,15.0,30.50,North,9,2.0,4.0,82,0.00,,,0.00,weatherlink.com 1.10,2013-12-08 09:57:00,
2013-12-08 05:12:00,18.7,14.0,30.50,North,11,2.0,6.0,83,0.00,,,0.00,weatherlink.com 1.10,2013-12-08 10:12:00,
2013-12-08 05:27:00,18.5,14.0,30.50,NNE,32,1.0,3.0,83,0.00,,,0.00,weatherlink.com 1.10,2013-12-08 10:27:00,
2013-12-08 05:43:00,18.1,14.0,30.51,NNE,22,0.0,1.0,83,0.00,,,0.00,weatherlink.com 1.10,2013-12-08 10:43:00,
2013-12-08 05:58:00,17.8,14.0,30.52,NNE,22,0.0,1.0,85,0.00,,,0.00,weatherlink.com 1.10,2013-12-08 10:58:00,
2013-12-08 06:13:00,17.7,14.0,30.52,NNE,22,0.0,2.0,86,0.00,,,0.00,weatherlink.com 1.10,2013-12-08 11:13:00,
2013-12-08 06:28:00,18.0,15.0,30.54,NNE,22,1.0,2.0,87,0.00,,,0.00,weatherlink.com 1.10,2013-12-08 11:28:00,
2013-12-08 06:43:00,18.3,15.0,30.54,NNE,22,2.0,3.0,86,0.00,,,0.00,weatherlink.com 1.10,2013-12-08 11:43:00,
2013-12-08 06:58:00,18.7,15.0,30.54,NNE,17,0.0,2.0,85,0.00,,,0.00,weatherlink.com 1.10,2013-12-08 11:58:00,
2013-12-08 07:13:00,18.5,15.0,30.54,NNE,17,1.0,2.0,86,0.00,,,0.00,weatherlink.com 1.10,2013-12-08 12:13:00,
2013-12-08 07:28:00,19.0,16.0,30.53,NNE,17,0.0,2.0,86,0.00,,,0.00,weatherlink.com 1.10,2013-12-08 12:28:00,
2013-12-08 07:43:00,19.5,16.0,30.55,North,9,2.0,2.0,87,0.00,,,0.00,weatherlink.com 1.10,2013-12-08 12:43:00,
2013-12-08 07:58:00,19.8,16.0,30.56,North,360,1.0,4.0,84,0.00,,,0.00,weatherlink.com 1.10,2013-12-08 12:58:00,
2013-12-08 08:13:00,20.0,16.0,30.55,NNE,24,2.0,3.0,84,0.00,,,0.00,weatherlink.com 1.10,2013-12-08 13:13:00,
2013-12-08 08:28:00,20.4,16.0,30.55,NE,34,2.0,4.0,82,0.00,,,0.00,weatherlink.com 1.10,2013-12-08 13:28:00,
2013-12-08 08:43:00,21.1,16.0,30.55,NNE,26,0.0,4.0,82,0.00,,,0.00,weatherlink.com 1.10,2013-12-08 13:43:00,
2013-12-08 08:58:00,21.4,16.0,30.56,NNE,24,3.0,5.0,80,0.00,,,0.00,weatherlink.com 1.10,2013-12-08 13:58:00,
2013-12-08 09:13:00,21.7,16.0,30.57,NNE,28,2.0,7.0,79,0.00,,,0.00,weatherlink.com 1.10,2013-12-08 14:13:00,
2013-12-08 09:28:00,21.9,16.0,30.57,WNW,299,2.0,5.0,79,0.00,,,0.00,weatherlink.com 1.10,2013-12-08 14:28:00,
2013-12-08 09:43:00,22.0,16.0,30.57,NNE,13,0.0,6.0,79,0.00,,,0.00,weatherlink.com 1.10,2013-12-08 14:43:00,
2013-12-08 09:58:00,22.2,16.0,30.57,ENE,63,2.0,6.0,78,0.00,,,0.00,weatherlink.com 1.10,2013-12-08 14:58:00,
2013-12-08 10:13:00,22.6,16.0,30.57,NW,306,1.0,5.0,77,0.00,,,0.00,weatherlink.com 1.10,2013-12-08 15:13:00,
2013-12-08 10:28:00,22.7,16.0,30.57,WSW,252,0.0,4.0,76,0.00,,,0.00,weatherlink.com 1.10,2013-12-08 15:28:00,
2013-12-08 10:43:00,23.0,17.0,30.56,WSW,248,1.0,4.0,76,0.00,,,0.00,weatherlink.com 1.10,2013-12-08 15:43:00,
2013-12-08 10:58:00,23.1,17.0,30.55,NNW,342,1.0,6.0,76,0.00,,,0.00,weatherlink.com 1.10,2013-12-08 15:58:00,
2013-12-08 11:13:00,23.3,17.0,30.53,SW,232,0.0,4.0,75,0.00,,,0.00,weatherlink.com 1.10,2013-12-08 16:13:00,
2013-12-08 11:28:00,23.5,17.0,30.52,WNW,294,1.0,2.0,75,0.00,,,0.00,weatherlink.com 1.10,2013-12-08 16:28:00,
2013-12-08 11:43:00,23.7,17.0,30.52,WNW,294,0.0,2.0,74,0.00,,,0.00,weatherlink.com 1.10,2013-12-08 16:43:00,
2013-12-08 11:58:00,23.7,17.0,30.53,WNW,294,0.0,1.0,74,0.00,,,0.00,weatherlink.com 1.10,2013-12-08 16:58:00,
2013-12-08 12:13:00,24.2,16.0,30.53,NNE,29,0.0,2.0,71,0.00,,,0.00,weatherlink.com 1.10,2013-12-08 17:13:00,
2013-12-08 12:28:00,24.4,16.0,30.53,NNE,29,0.0,2.0,69,0.00,,,0.00,weatherlink.com 1.10,2013-12-08 17:28:00,
2013-12-08 12:43:00,24.7,16.0,30.53,NNE,29,0.0,0.0,70,0.00,,,0.00,weatherlink.com 1.10,2013-12-08 17:43:00,
2013-12-08 12:58:00,24.9,16.0,30.53,NNE,30,1.0,2.0,68,0.00,,,0.00,weatherlink.com 1.10,2013-12-08 17:58:00,
2013-12-08 13:13:00,25.1,16.0,30.51,ENE,61,0.0,2.0,69,0.00,,,0.00,weatherlink.com 1.10,2013-12-08 18:13:00,
2013-12-08 13:28:00,25.5,16.0,30.50,ENE,61,0.0,2.0,66,0.00,,,0.00,weatherlink.com 1.10,2013-12-08 18:28:00,
2013-12-08 13:43:00,25.8,16.0,30.48,NE,47,1.0,3.0,66,0.00,,,0.00,weatherlink.com 1.10,2013-12-08 18:43:00,
2013-12-08 13:58:00,25.7,16.0,30.47,West,270,0.0,3.0,66,0.00,,,0.00,weatherlink.com 1.10,2013-12-08 18:58:00,
2013-12-08 14:13:00,26.4,17.0,30.47,WSW,257,1.0,3.0,67,0.00,,,0.00,weatherlink.com 1.10,2013-12-08 19:13:00,
2013-12-08 14:28:00,26.1,16.0,30.48,North,355,1.0,3.0,66,0.00,,,0.00,weatherlink.com 1.10,2013-12-08 19:28:00,
2013-12-08 14:43:00,25.8,16.0,30.48,NNE,28,1.0,4.0,66,0.00,,,0.00,weatherlink.com 1.10,2013-12-08 19:43:00,
2013-12-08 14:58:00,26.3,16.0,30.49,North,5,2.0,3.0,66,0.00,,,0.00,weatherlink.com 1.10,2013-12-08 19:58:00,
2013-12-08 15:13:00,26.0,16.0,30.49,WSW,242,2.0,4.0,67,0.00,,,0.00,weatherlink.com 1.10,2013-12-08 20:13:00,
2013-12-08 15:28:00,25.8,17.0,30.50,WSW,245,0.0,2.0,69,0.00,,,0.00,weatherlink.com 1.10,2013-12-08 20:28:00,
2013-12-08 15:43:00,25.9,17.0,30.50,West,277,1.0,3.0,69,0.00,,,0.00,weatherlink.com 1.10,2013-12-08 20:43:00,
2013-12-08 15:58:00,25.6,18.0,30.51,WSW,240,0.0,4.0,73,0.00,,,0.00,weatherlink.com 1.10,2013-12-08 20:58:00,
2013-12-08 16:13:00,25.2,18.0,30.51,South,181,2.0,3.0,75,0.00,,,0.00,weatherlink.com 1.10,2013-12-08 21:13:00,
2013-12-08 16:28:00,24.9,19.0,30.50,South,181,2.0,4.0,78,0.00,,,0.00,weatherlink.com 1.10,2013-12-08 21:28:00,
2013-12-08 16:43:00,24.2,19.0,30.50,SSE,161,2.0,6.0,79,0.00,,,0.00,weatherlink.com 1.10,2013-12-08 21:43:00,
2013-12-08 16:58:00,23.8,19.0,30.50,SSW,200,1.0,4.0,80,0.00,,,0.00,weatherlink.com 1.10,2013-12-08 21:58:00,
2013-12-08 17:13:00,23.6,18.0,30.50,SE,139,1.0,4.0,80,0.00,,,0.00,weatherlink.com 1.10,2013-12-08 22:13:00,
2013-12-08 17:28:00,23.4,18.0,30.49,South,173,2.0,6.0,81,0.00,,,0.00,weatherlink.com 1.10,2013-12-08 22:28:00,
2013-12-08 17:43:00,23.3,19.0,30.50,SSE,154,0.0,5.0,82,0.00,,,0.00,weatherlink.com 1.10,2013-12-08 22:43:00,
2013-12-08 17:58:00,23.2,19.0,30.50,SSE,160,1.0,6.0,82,0.00,,,0.00,weatherlink.com 1.10,2013-12-08 22:58:00,
2013-12-08 18:13:00,23.3,19.0,30.50,SE,132,3.0,4.0,83,0.00,,,0.00,weatherlink.com 1.10,2013-12-08 23:13:00,
2013-12-08 18:28:00,23.2,19.0,30.50,SE,144,2.0,5.0,82,0.00,,,0.00,weatherlink.com 1.10,2013-12-08 23:28:00,
2013-12-08 18:43:00,23.2,19.0,30.50,SSE,147,0.0,4.0,82,0.00,,,0.00,weatherlink.com 1.10,2013-12-08 23:43:00,
2013-12-08 18:58:00,23.3,19.0,30.48,SE,131,1.0,5.0,82,0.00,,,0.00,weatherlink.com 1.10,2013-12-08 23:58:00,
2013-12-08 19:13:00,23.1,18.0,30.49,SSE,148,1.0,4.0,81,0.00,,,0.00,weatherlink.com 1.10,2013-12-09 00:13:00,
2013-12-08 19:28:00,23.2,18.0,30.48,SSE,154,2.0,5.0,80,0.00,,,0.00,weatherlink.com 1.10,2013-12-09 00:28:00,
2013-12-08 19:43:00,23.4,18.0,30.48,ESE,122,1.0,5.0,79,0.00,,,0.00,weatherlink.com 1.10,2013-12-09 00:43:00,
2013-12-08 19:59:00,23.4,18.0,30.48,South,178,0.0,5.0,79,0.00,,,0.00,weatherlink.com 1.10,2013-12-09 00:59:00,
2013-12-08 20:29:00,23.7,18.0,30.46,SSE,158,1.0,4.0,78,0.00,,,0.00,weatherlink.com 1.10,2013-12-09 01:29:00,
2013-12-08 20:44:00,23.7,18.0,30.45,SSE,163,3.0,5.0,78,0.00,,,0.00,weatherlink.com 1.10,2013-12-09 01:44:00,
2013-12-08 20:59:00,23.6,18.0,30.43,SE,130,2.0,4.0,78,0.00,,,0.00,weatherlink.com 1.10,2013-12-09 01:59:00,
2013-12-08 21:14:00,23.7,18.0,30.43,SE,142,2.0,5.0,78,0.00,,,0.00,weatherlink.com 1.10,2013-12-09 02:14:00,
2013-12-08 21:29:00,23.8,18.0,30.43,South,177,2.0,6.0,78,0.00,,,0.00,weatherlink.com 1.10,2013-12-09 02:29:00,
2013-12-08 21:44:00,23.9,18.0,30.42,SSE,147,1.0,4.0,79,0.00,,,0.00,weatherlink.com 1.10,2013-12-09 02:44:00,
2013-12-08 21:59:00,23.9,18.0,30.42,SE,124,3.0,5.0,79,0.00,,,0.00,weatherlink.com 1.10,2013-12-09 02:59:00,
2013-12-08 22:14:00,23.8,18.0,30.41,SSE,160,2.0,6.0,79,0.00,,,0.00,weatherlink.com 1.10,2013-12-09 03:14:00,
2013-12-08 22:29:00,23.8,19.0,30.41,South,190,1.0,4.0,80,0.00,,,0.00,weatherlink.com 1.10,2013-12-09 03:29:00,
2013-12-08 22:44:00,23.7,18.0,30.41,South,184,1.0,7.0,80,0.00,,,0.00,weatherlink.com 1.10,2013-12-09 03:44:00,
2013-12-08 22:59:00,23.4,19.0,30.41,SSW,194,1.0,6.0,83,0.00,,,0.00,weatherlink.com 1.10,2013-12-09 03:59:00,
2013-12-08 23:14:00,23.3,19.0,30.42,SSW,208,2.0,5.0,83,0.00,,,0.00,weatherlink.com 1.10,2013-12-09 04:14:00,
2013-12-08 23:29:00,23.1,19.0,30.42,South,175,0.0,9.0,85,0.00,,,0.00,weatherlink.com 1.10,2013-12-09 04:29:00,
2013-12-08 23:44:00,22.8,19.0,30.40,SSE,159,3.0,8.0,86,0.00,,,0.00,weatherlink.com 1.10,2013-12-09 04:44:00,
2013-12-08 23:59:00,22.6,20.0,30.39,SSW,197,4.0,5.0,88,0.00,,,0.00,weatherlink.com 1.10,2013-12-09 04:59:00,